| time (UTC) | temp C | wind direction | speed KPH | gust KPH | rain 1hr cm | rain 24hr cm | rain mn cm | humidity % | barometer mb |
| 20260831234004 | 29 | 356 | 3.2 | 4.8 | 0.00 | 0.00 | 0.00 | 29 | 1006.8 |
| 20260831233504 | 29 | 24 | 1.6 | 4.8 | 0.00 | 0.00 | 0.00 | 30 | 1006.8 |
| 20260831233005 | 29 | 4 | 3.2 | 4.8 | 0.00 | 0.00 | 0.00 | 30 | 1006.7 |
| 20260831232505 | 29 | 0 | 1.6 | 3.2 | 0.00 | 0.00 | 0.00 | 28 | 1006.8 |
| 20260831232004 | 28 | 20 | 3.2 | 4.8 | 0.00 | 0.00 | 0.00 | 29 | 1006.9 |
| 20260831231504 | 29 | 6 | 1.6 | 3.2 | 0.00 | 0.00 | 0.00 | 30 | 1006.9 |
| 20260831231004 | 28 | 349 | 1.6 | 4.8 | 0.00 | 0.00 | 0.00 | 31 | 1007.0 |
| 20260831230504 | 28 | 32 | 1.6 | 3.2 | 0.00 | 0.00 | 0.00 | 32 | 1007.1 |
| 20260831230005 | 28 | 6 | 1.6 | 4.8 | 0.00 | 0.00 | 0.00 | 30 | 1007.1 |
| 20260831225504 | 28 | 16 | 3.2 | 4.8 | 0.00 | 0.00 | 0.00 | 34 | 1007.2 |
| 20260831225005 | 28 | 83 | 3.2 | 4.8 | 0.00 | 0.00 | 0.00 | 33 | 1007.2 |
| 20260831224505 | 28 | 27 | 4.8 | 12.9 | 0.00 | 0.00 | 0.00 | 34 | 1007.2 |
| 20260831224005 | 28 | 77 | 4.8 | 12.9 | 0.00 | 0.00 | 0.00 | 34 | 1007.3 |
| 20260831223504 | 28 | 71 | 4.8 | 9.7 | 0.00 | 0.00 | 0.00 | 35 | 1007.3 |
| 20260831223005 | 28 | 50 | 4.8 | 11.3 | 0.00 | 0.00 | 0.00 | 34 | 1007.3 |
| 20260831222504 | 28 | 98 | 4.8 | 11.3 | 0.00 | 0.00 | 0.00 | 35 | 1007.4 |
| 20260831221004 | 28 | 79 | 8.0 | 12.9 | 0.00 | 0.00 | 0.00 | 34 | 1007.5 |
| 20260831220505 | 28 | 221 | 1.6 | 8.0 | 0.00 | 0.00 | 0.00 | 36 | 1007.6 |
| 20260831220004 | 27 | 72 | 3.2 | 8.0 | 0.00 | 0.00 | 0.00 | 36 | 1007.6 |
| 20260831215504 | 28 | 83 | 4.8 | 8.0 | 0.00 | 0.00 | 0.00 | 35 | 1007.7 |
| 20260831214504 | 28 | 109 | 3.2 | 9.7 | 0.00 | 0.00 | 0.00 | 36 | 1007.7 |
| 20260831213504 | 27 | 340 | 1.6 | 3.2 | 0.00 | 0.00 | 0.00 | 38 | 1007.8 |
| 20260831212504 | 27 | 8 | 3.2 | 8.0 | 0.00 | 0.00 | 0.00 | 38 | 1008.0 |
| 20260831212004 | 27 | 7 | 1.6 | 3.2 | 0.00 | 0.00 | 0.00 | 39 | 1008.0 |
| 20260831211504 | 27 | 317 | 3.2 | 3.2 | 0.00 | 0.00 | 0.00 | 38 | 1008.1 |
| 20260831210505 | 26 | 3 | 3.2 | 4.8 | 0.00 | 0.00 | 0.00 | 38 | 1008.3 |
| 20260831210004 | 26 | 327 | 1.6 | 3.2 | 0.00 | 0.00 | 0.00 | 39 | 1008.4 |
| 20260831205504 | 26 | 248 | 3.2 | 4.8 | 0.00 | 0.00 | 0.00 | 37 | 1008.4 |
| 20260831205004 | 26 | 163 | 4.8 | 8.0 | 0.00 | 0.00 | 0.00 | 38 | 1008.4 |
| 20260831204505 | 26 | 85 | 4.8 | 12.9 | 0.00 | 0.00 | 0.00 | 38 | 1008.4 |
| 20260831204005 | 26 | 42 | 3.2 | 9.7 | 0.00 | 0.00 | 0.00 | 38 | 1008.5 |
| 20260831203505 | 26 | 67 | 1.6 | 4.8 | 0.00 | 0.00 | 0.00 | 38 | 1008.6 |
| 20260831203005 | 26 | 62 | 4.8 | 8.0 | 0.00 | 0.00 | 0.00 | 38 | 1008.7 |
| 20260831202505 | 26 | 351 | 1.6 | 8.0 | 0.00 | 0.00 | 0.00 | 36 | 1008.8 |
| 20260831202004 | 26 | 96 | 6.4 | 12.9 | 0.00 | 0.00 | 0.00 | 36 | 1008.9 |
| 20260831200504 | 26 | 224 | 1.6 | 4.8 | 0.00 | 0.00 | 0.00 | 39 | 1009.0 |
| 20260831200004 | 25 | 152 | 4.8 | 9.7 | 0.00 | 0.00 | 0.00 | 40 | 1009.0 |
| 20260831195504 | 26 | 90 | 8.0 | 12.9 | 0.00 | 0.00 | 0.00 | 40 | 1009.1 |
| 20260831195004 | 26 | 215 | 1.6 | 3.2 | 0.00 | 0.00 | 0.00 | 41 | 1009.1 |
| 20260831194504 | 25 | 100 | 3.2 | 9.7 | 0.00 | 0.00 | 0.00 | 42 | 1009.2 |
| 20260831194005 | 25 | 244 | 1.6 | 14.5 | 0.00 | 0.00 | 0.00 | 42 | 1009.2 |
| 20260831193504 | 25 | 93 | 1.6 | 3.2 | 0.00 | 0.00 | 0.00 | 43 | 1009.3 |
| 20260831193005 | 25 | 38 | 3.2 | 8.0 | 0.00 | 0.00 | 0.00 | 43 | 1009.3 |
| 20260831192004 | 25 | 47 | 1.6 | 8.0 | 0.00 | 0.00 | 0.00 | 42 | 1009.4 |
| 20260831191505 | 25 | 301 | 3.2 | 8.0 | 0.00 | 0.00 | 0.00 | 43 | 1009.4 |
| 20260831191004 | 24 | 246 | 1.6 | 3.2 | 0.00 | 0.00 | 0.00 | 43 | 1009.5 |
| 20260831190504 | 25 | 23 | 3.2 | 4.8 | 0.00 | 0.00 | 0.00 | 46 | 1009.5 |
| 20260831190005 | 24 | 184 | 1.6 | 8.0 | 0.00 | 0.00 | 0.00 | 43 | 1009.6 |
| 20260831185004 | 24 | 180 | 1.6 | 3.2 | 0.00 | 0.00 | 0.00 | 46 | 1009.8 |
| 20260831184505 | 23 | 314 | 3.2 | 8.0 | 0.00 | 0.00 | 0.00 | 50 | 1009.8 |
| 20260831184004 | 23 | 10 | 4.8 | 8.0 | 0.00 | 0.00 | 0.00 | 49 | 1009.8 |
| 20260831183505 | 23 | 20 | 1.6 | 4.8 | 0.00 | 0.00 | 0.00 | 51 | 1009.9 |
| 20260831183004 | 23 | 4 | 4.8 | 9.7 | 0.00 | 0.00 | 0.00 | 50 | 1010.0 |
| 20260831182504 | 23 | 10 | 3.2 | 9.7 | 0.00 | 0.00 | 0.00 | 52 | 1010.0 |
| 20260831182005 | 23 | 12 | 6.4 | 12.9 | 0.00 | 0.00 | 0.00 | 49 | 1010.1 |
| 20260831181004 | 22 | 52 | 3.2 | 4.8 | 0.00 | 0.00 | 0.00 | 53 | 1010.1 |
| 20260831180504 | 22 | 262 | 1.6 | 4.8 | 0.00 | 0.00 | 0.00 | 54 | 1010.3 |
| 20260831180004 | 22 | 309 | 1.6 | 8.0 | 0.00 | 0.00 | 0.00 | 54 | 1010.3 |
| 20260831175504 | 22 | 19 | 4.8 | 9.7 | 0.00 | 0.00 | 0.00 | 54 | 1010.4 |
| 20260831175004 | 22 | 32 | 3.2 | 4.8 | 0.00 | 0.00 | 0.00 | 56 | 1010.4 |
| 20260831174504 | 22 | 47 | 1.6 | 3.2 | 0.00 | 0.00 | 0.00 | 56 | 1010.5 |
| 20260831174005 | 22 | 64 | 4.8 | 9.7 | 0.00 | 0.00 | 0.00 | 56 | 1010.5 |
| 20260831173005 | 21 | 55 | 1.6 | 4.8 | 0.00 | 0.00 | 0.00 | 58 | 1010.6 |
| 20260831172504 | 21 | 17 | 1.6 | 8.0 | 0.00 | 0.00 | 0.00 | 59 | 1010.6 |
| 20260831172004 | 21 | 6 | 3.2 | 4.8 | 0.00 | 0.00 | 0.00 | 60 | 1010.7 |
| 20260831171504 | 20 | 28 | 4.8 | 4.8 | 0.00 | 0.00 | 0.00 | 61 | 1010.7 |
| 20260831171004 | 20 | 20 | 3.2 | 4.8 | 0.00 | 0.00 | 0.00 | 61 | 1010.8 |
| 20260831170005 | 20 | 6 | 3.2 | 3.2 | 0.00 | 0.00 | 0.00 | 62 | 1010.9 |
| 20260831165504 | 20 | 20 | 1.6 | 4.8 | 0.00 | 0.00 | 0.00 | 63 | 1010.9 |
| 20260831165004 | 19 | 327 | 3.2 | 8.0 | 0.00 | 0.00 | 0.00 | 63 | 1011.0 |
| 20260831164504 | 19 | 11 | 3.2 | 8.0 | 0.00 | 0.00 | 0.00 | 64 | 1011.1 |
| 20260831164004 | 19 | 23 | 3.2 | 8.0 | 0.00 | 0.00 | 0.00 | 64 | 1011.2 |
| 20260831163005 | 18 | 331 | 3.2 | 4.8 | 0.00 | 0.00 | 0.00 | 64 | 1011.2 |
| 20260831162505 | 18 | 4 | 3.2 | 8.0 | 0.00 | 0.00 | 0.00 | 65 | 1011.3 |
| 20260831162004 | 18 | 0 | 4.8 | 9.7 | 0.00 | 0.00 | 0.00 | 66 | 1011.2 |
| 20260831161504 | 18 | 21 | 3.2 | 8.0 | 0.00 | 0.00 | 0.00 | 66 | 1011.3 |
| 20260831160504 | 18 | 24 | 3.2 | 8.0 | 0.00 | 0.00 | 0.00 | 68 | 1011.4 |
| 20260831160004 | 18 | 22 | 4.8 | 9.7 | 0.00 | 0.00 | 0.00 | 67 | 1011.3 |
| 20260831155504 | 18 | 352 | 3.2 | 9.7 | 0.00 | 0.00 | 0.00 | 68 | 1011.4 |
| 20260831155004 | 17 | 352 | 4.8 | 8.0 | 0.00 | 0.00 | 0.00 | 70 | 1011.4 |
| 20260831154004 | 16 | 86 | 1.6 | 3.2 | 0.00 | 0.00 | 0.00 | 74 | 1011.5 |
| 20260831153004 | 16 | 34 | 1.6 | 3.2 | 0.00 | 0.00 | 0.00 | 77 | 1011.5 |
| 20260831152504 | 15 | 13 | 1.6 | 3.2 | 0.00 | 0.00 | 0.00 | 79 | 1011.5 |
| 20260831152004 | 15 | 84 | 1.6 | 3.2 | 0.00 | 0.00 | 0.00 | 80 | 1011.6 |
| 20260831151504 | 14 | 84 | 1.6 | 3.2 | 0.00 | 0.00 | 0.00 | 81 | 1011.6 |
| 20260831151004 | 13 | 84 | 0.0 | 1.6 | 0.00 | 0.00 | 0.00 | 82 | 1011.6 |
| 20260831150504 | 13 | 85 | 0.0 | 1.6 | 0.00 | 0.00 | 0.00 | 82 | 1011.7 |
| 20260831150005 | 13 | 86 | 1.6 | 3.2 | 0.00 | 0.00 | 0.00 | 82 | 1011.7 |
| 20260831145506 | 13 | 94 | 1.6 | 3.2 | 0.00 | 0.00 | 0.00 | 82 | 1011.7 |
| 20260831145005 | 13 | 94 | 1.6 | 3.2 | 0.00 | 0.00 | 0.00 | 82 | 1011.7 |
| 20260831144505 | 13 | 94 | 1.6 | 3.2 | 0.00 | 0.00 | 0.00 | 82 | 1011.7 |
| 20260831144004 | 13 | 94 | 1.6 | 3.2 | 0.00 | 0.00 | 0.00 | 82 | 1011.8 |
| 20260831143504 | 12 | 103 | 1.6 | 3.2 | 0.00 | 0.00 | 0.00 | 82 | 1011.7 |
| 20260831143005 | 12 | 144 | 1.6 | 3.2 | 0.00 | 0.00 | 0.00 | 83 | 1011.7 |
| 20260831142504 | 12 | 144 | 0.0 | 3.2 | 0.00 | 0.00 | 0.00 | 83 | 1011.8 |
| 20260831142004 | 12 | 144 | 0.0 | 3.2 | 0.00 | 0.00 | 0.00 | 83 | 1011.7 |
| 20260831141005 | 12 | 144 | 0.0 | 3.2 | 0.00 | 0.00 | 0.00 | 82 | 1011.8 |
| 20260831140505 | 12 | 144 | 0.0 | 3.2 | 0.00 | 0.00 | 0.00 | 82 | 1011.8 |
| 20260831140005 | 12 | 144 | 1.6 | 3.2 | 0.00 | 0.00 | 0.00 | 82 | 1011.8 |
| 20260831135505 | 12 | 144 | 0.0 | 3.2 | 0.00 | 0.00 | 0.00 | 81 | 1011.7 |
| 20260831135004 | 12 | 146 | 0.0 | 3.2 | 0.00 | 0.00 | 0.00 | 81 | 1011.7 |
| 20260831134504 | 12 | 146 | 0.0 | 3.2 | 0.00 | 0.00 | 0.00 | 80 | 1011.7 |
| 20260831133504 | 13 | 123 | 1.6 | 3.2 | 0.00 | 0.00 | 0.00 | 79 | 1011.8 |
| 20260831133004 | 13 | 111 | 1.6 | 3.2 | 0.00 | 0.00 | 0.00 | 78 | 1011.7 |
| 20260831132504 | 13 | 89 | 1.6 | 3.2 | 0.00 | 0.00 | 0.00 | 77 | 1011.8 |
| 20260831132004 | 13 | 10 | 1.6 | 3.2 | 0.00 | 0.00 | 0.00 | 76 | 1011.8 |
| 20260831131504 | 14 | 46 | 0.0 | 1.6 | 0.00 | 0.00 | 0.00 | 75 | 1011.9 |
| 20260831131005 | 15 | 46 | 0.0 | 3.2 | 0.00 | 0.00 | 0.00 | 74 | 1011.9 |
| 20260831130504 | 15 | 39 | 0.0 | 1.6 | 0.00 | 0.00 | 0.00 | 73 | 1012.0 |
| 20260831130005 | 15 | 6 | 1.6 | 4.8 | 0.00 | 0.00 | 0.00 | 73 | 1011.9 |
| 20260831125504 | 15 | 347 | 1.6 | 3.2 | 0.00 | 0.00 | 0.00 | 73 | 1011.9 |
| 20260831125005 | 15 | 351 | 1.6 | 4.8 | 0.00 | 0.00 | 0.00 | 72 | 1011.9 |
| 20260831124504 | 15 | 329 | 1.6 | 4.8 | 0.00 | 0.00 | 0.00 | 73 | 1012.0 |
| 20260831124004 | 15 | 329 | 1.6 | 4.8 | 0.00 | 0.00 | 0.00 | 73 | 1012.0 |
| 20260831123504 | 15 | 328 | 1.6 | 4.8 | 0.00 | 0.00 | 0.00 | 73 | 1011.9 |
| 20260831123005 | 15 | 330 | 3.2 | 4.8 | 0.00 | 0.00 | 0.00 | 73 | 1012.0 |
| 20260831122504 | 15 | 326 | 3.2 | 4.8 | 0.00 | 0.00 | 0.00 | 73 | 1012.0 |
| 20260831122004 | 15 | 329 | 1.6 | 3.2 | 0.00 | 0.00 | 0.00 | 73 | 1012.2 |
| 20260831121504 | 15 | 325 | 1.6 | 3.2 | 0.00 | 0.00 | 0.00 | 73 | 1012.2 |
| 20260831121004 | 15 | 332 | 3.2 | 3.2 | 0.00 | 0.00 | 0.00 | 73 | 1012.2 |
| 20260831120504 | 15 | 19 | 0.0 | 3.2 | 0.00 | 0.00 | 0.00 | 72 | 1012.2 |
| 20260831120004 | 15 | 19 | 1.6 | 3.2 | 0.00 | 0.00 | 0.00 | 72 | 1012.3 |
| 20260831115004 | 16 | 326 | 1.6 | 4.8 | 0.00 | 0.00 | 0.00 | 72 | 1012.4 |
| 20260831114504 | 16 | 335 | 1.6 | 4.8 | 0.00 | 0.00 | 0.00 | 72 | 1012.4 |
| 20260831114004 | 16 | 328 | 1.6 | 3.2 | 0.00 | 0.00 | 0.00 | 72 | 1012.3 |
| 20260831113504 | 16 | 328 | 3.2 | 4.8 | 0.00 | 0.00 | 0.00 | 72 | 1012.3 |
| 20260831113004 | 16 | 354 | 3.2 | 4.8 | 0.00 | 0.00 | 0.00 | 72 | 1012.4 |
| 20260831112504 | 16 | 328 | 1.6 | 3.2 | 0.00 | 0.00 | 0.00 | 72 | 1012.4 |
| 20260831112004 | 16 | 333 | 3.2 | 4.8 | 0.00 | 0.00 | 0.00 | 72 | 1012.5 |
| 20260831111504 | 16 | 331 | 1.6 | 3.2 | 0.00 | 0.00 | 0.00 | 72 | 1012.6 |
| 20260831111004 | 16 | 324 | 3.2 | 4.8 | 0.00 | 0.00 | 0.00 | 72 | 1012.5 |
| 20260831110504 | 16 | 338 | 1.6 | 3.2 | 0.00 | 0.00 | 0.00 | 71 | 1012.5 |
| 20260831110004 | 16 | 323 | 1.6 | 3.2 | 0.00 | 0.00 | 0.00 | 71 | 1012.5 |
| 20260831105504 | 16 | 331 | 3.2 | 3.2 | 0.00 | 0.00 | 0.00 | 71 | 1012.5 |
| 20260831105004 | 16 | 325 | 1.6 | 3.2 | 0.00 | 0.00 | 0.00 | 71 | 1012.5 |
| 20260831104504 | 16 | 330 | 3.2 | 3.2 | 0.00 | 0.00 | 0.00 | 71 | 1012.5 |
| 20260831104004 | 16 | 329 | 3.2 | 4.8 | 0.00 | 0.00 | 0.00 | 71 | 1012.6 |
| 20260831103504 | 16 | 333 | 3.2 | 8.0 | 0.00 | 0.00 | 0.00 | 71 | 1012.6 |
| 20260831103004 | 16 | 327 | 3.2 | 4.8 | 0.00 | 0.00 | 0.00 | 72 | 1012.6 |
| 20260831102504 | 16 | 334 | 1.6 | 4.8 | 0.00 | 0.00 | 0.00 | 72 | 1012.7 |
| 20260831102004 | 16 | 326 | 3.2 | 4.8 | 0.00 | 0.00 | 0.00 | 72 | 1012.7 |
| 20260831101504 | 16 | 332 | 3.2 | 8.0 | 0.00 | 0.00 | 0.00 | 73 | 1012.8 |
| 20260831101004 | 15 | 327 | 3.2 | 4.8 | 0.00 | 0.00 | 0.00 | 73 | 1012.9 |
| 20260831100504 | 15 | 329 | 1.6 | 3.2 | 0.00 | 0.00 | 0.00 | 74 | 1013.0 |
| 20260831095504 | 15 | 312 | 1.6 | 4.8 | 0.00 | 0.00 | 0.00 | 73 | 1013.2 |
| 20260831093504 | 16 | 314 | 1.6 | 1.6 | 0.00 | 0.00 | 0.00 | 72 | 1013.4 |
| 20260831093004 | 16 | 313 | 1.6 | 3.2 | 0.00 | 0.00 | 0.00 | 72 | 1013.4 |
| 20260831092504 | 16 | 353 | 0.0 | 3.2 | 0.00 | 0.00 | 0.00 | 72 | 1013.4 |
| 20260831092004 | 16 | 321 | 1.6 | 3.2 | 0.00 | 0.00 | 0.00 | 72 | 1013.3 |
| 20260831091504 | 16 | 354 | 1.6 | 3.2 | 0.00 | 0.00 | 0.00 | 72 | 1013.3 |
| 20260831091004 | 16 | 353 | 1.6 | 3.2 | 0.00 | 0.00 | 0.00 | 72 | 1013.4 |
| 20260831090504 | 16 | 350 | 3.2 | 3.2 | 0.00 | 0.00 | 0.00 | 72 | 1013.5 |
| 20260831090004 | 16 | 352 | 1.6 | 3.2 | 0.00 | 0.00 | 0.00 | 71 | 1013.6 |
| 20260831085504 | 16 | 358 | 1.6 | 3.2 | 0.00 | 0.00 | 0.00 | 72 | 1013.6 |
| 20260831085004 | 16 | 318 | 1.6 | 4.8 | 0.00 | 0.00 | 0.00 | 71 | 1013.6 |
| 20260831084504 | 16 | 347 | 3.2 | 4.8 | 0.00 | 0.00 | 0.00 | 72 | 1013.7 |
| 20260831084004 | 16 | 352 | 1.6 | 3.2 | 0.00 | 0.00 | 0.00 | 72 | 1013.7 |
| 20260831083504 | 16 | 326 | 1.6 | 3.2 | 0.00 | 0.00 | 0.00 | 72 | 1013.8 |
| 20260831083004 | 16 | 331 | 3.2 | 3.2 | 0.00 | 0.00 | 0.00 | 71 | 1013.8 |
| 20260831082504 | 16 | 323 | 3.2 | 4.8 | 0.00 | 0.00 | 0.00 | 71 | 1013.9 |
| 20260831082004 | 17 | 341 | 1.6 | 4.8 | 0.00 | 0.00 | 0.00 | 71 | 1013.9 |
| 20260831080504 | 17 | 344 | 1.6 | 4.8 | 0.00 | 0.00 | 0.00 | 71 | 1014.0 |
| 20260831080004 | 17 | 320 | 3.2 | 8.0 | 0.00 | 0.00 | 0.00 | 71 | 1014.1 |
| 20260831075004 | 17 | 321 | 1.6 | 4.8 | 0.00 | 0.00 | 0.00 | 70 | 1014.3 |
| 20260831074504 | 17 | 336 | 3.2 | 4.8 | 0.00 | 0.00 | 0.00 | 70 | 1014.2 |
| 20260831073504 | 17 | 332 | 4.8 | 9.7 | 0.00 | 0.00 | 0.00 | 70 | 1014.2 |
| 20260831073004 | 17 | 333 | 3.2 | 9.7 | 0.00 | 0.00 | 0.00 | 70 | 1014.3 |
| 20260831072504 | 17 | 329 | 3.2 | 9.7 | 0.00 | 0.00 | 0.00 | 70 | 1014.3 |
| 20260831072004 | 17 | 341 | 3.2 | 9.7 | 0.00 | 0.00 | 0.00 | 70 | 1014.4 |
| 20260831071504 | 17 | 330 | 4.8 | 8.0 | 0.00 | 0.00 | 0.00 | 70 | 1014.4 |
| 20260831071004 | 17 | 331 | 4.8 | 9.7 | 0.00 | 0.00 | 0.00 | 70 | 1014.4 |
| 20260831070504 | 17 | 353 | 4.8 | 11.3 | 0.00 | 0.00 | 0.00 | 70 | 1014.4 |
| 20260831070004 | 17 | 333 | 4.8 | 9.7 | 0.00 | 0.00 | 0.00 | 70 | 1014.4 |
| 20260831065505 | 17 | 335 | 4.8 | 9.7 | 0.00 | 0.00 | 0.00 | 70 | 1014.5 |
| 20260831065004 | 17 | 319 | 4.8 | 11.3 | 0.00 | 0.00 | 0.00 | 70 | 1014.6 |
| 20260831064504 | 17 | 325 | 4.8 | 9.7 | 0.00 | 0.00 | 0.00 | 70 | 1014.7 |
| 20260831064004 | 17 | 334 | 4.8 | 8.0 | 0.00 | 0.00 | 0.00 | 70 | 1014.7 |
| 20260831063504 | 17 | 328 | 6.4 | 9.7 | 0.00 | 0.00 | 0.00 | 70 | 1014.7 |
| 20260831063004 | 17 | 330 | 3.2 | 9.7 | 0.00 | 0.00 | 0.00 | 70 | 1014.9 |
| 20260831062504 | 17 | 330 | 4.8 | 11.3 | 0.00 | 0.00 | 0.00 | 70 | 1014.9 |
| 20260831062004 | 17 | 344 | 4.8 | 12.9 | 0.00 | 0.00 | 0.00 | 70 | 1015.0 |
| 20260831061504 | 17 | 326 | 4.8 | 9.7 | 0.00 | 0.00 | 0.00 | 70 | 1015.1 |
| 20260831061004 | 17 | 335 | 4.8 | 12.9 | 0.00 | 0.00 | 0.00 | 69 | 1015.1 |
| 20260831060504 | 17 | 326 | 4.8 | 11.3 | 0.00 | 0.00 | 0.00 | 69 | 1015.1 |
| 20260831055504 | 17 | 325 | 6.4 | 12.9 | 0.00 | 0.00 | 0.00 | 69 | 1015.2 |
| 20260831055004 | 17 | 330 | 4.8 | 9.7 | 0.00 | 0.00 | 0.00 | 69 | 1015.3 |
| 20260831054504 | 17 | 320 | 6.4 | 11.3 | 0.00 | 0.00 | 0.00 | 69 | 1015.4 |
| 20260831054004 | 17 | 324 | 4.8 | 11.3 | 0.00 | 0.00 | 0.00 | 69 | 1015.3 |
| 20260831053503 | 17 | 327 | 8.0 | 11.3 | 0.00 | 0.00 | 0.00 | 68 | 1015.4 |
| 20260831053004 | 17 | 339 | 4.8 | 9.7 | 0.00 | 0.00 | 0.00 | 68 | 1015.6 |
| 20260831052504 | 17 | 326 | 4.8 | 11.3 | 0.00 | 0.00 | 0.00 | 68 | 1015.6 |
| 20260831052004 | 18 | 329 | 4.8 | 9.7 | 0.00 | 0.00 | 0.00 | 68 | 1015.7 |
| 20260831051504 | 18 | 329 | 6.4 | 14.5 | 0.00 | 0.00 | 0.00 | 67 | 1015.7 |
| 20260831051003 | 18 | 338 | 4.8 | 11.3 | 0.00 | 0.00 | 0.00 | 67 | 1015.7 |
| 20260831050503 | 18 | 334 | 4.8 | 9.7 | 0.00 | 0.00 | 0.00 | 67 | 1015.7 |
| 20260831050004 | 18 | 328 | 4.8 | 11.3 | 0.00 | 0.00 | 0.00 | 67 | 1015.8 |
| 20260831045504 | 18 | 331 | 6.4 | 9.7 | 0.00 | 0.00 | 0.00 | 67 | 1015.8 |
| 20260831045004 | 18 | 321 | 3.2 | 9.7 | 0.00 | 0.00 | 0.00 | 67 | 1015.9 |
| 20260831044004 | 18 | 321 | 3.2 | 8.0 | 0.00 | 0.00 | 0.00 | 66 | 1015.9 |
| 20260831043504 | 18 | 337 | 3.2 | 4.8 | 0.00 | 0.00 | 0.00 | 66 | 1016.0 |
| 20260831043003 | 18 | 316 | 4.8 | 12.9 | 0.00 | 0.00 | 0.00 | 66 | 1016.0 |
| 20260831042504 | 18 | 349 | 4.8 | 8.0 | 0.00 | 0.00 | 0.00 | 66 | 1016.0 |
| 20260831042004 | 18 | 330 | 4.8 | 8.0 | 0.00 | 0.00 | 0.00 | 66 | 1015.9 |
| 20260831041504 | 18 | 323 | 4.8 | 9.7 | 0.00 | 0.00 | 0.00 | 66 | 1015.9 |
| 20260831041004 | 18 | 333 | 4.8 | 12.9 | 0.00 | 0.00 | 0.00 | 66 | 1015.9 |
| 20260831040004 | 18 | 334 | 3.2 | 8.0 | 0.00 | 0.00 | 0.00 | 65 | 1016.0 |
| 20260831035504 | 18 | 322 | 4.8 | 8.0 | 0.00 | 0.00 | 0.00 | 65 | 1016.0 |
| 20260831035003 | 18 | 333 | 4.8 | 8.0 | 0.00 | 0.00 | 0.00 | 65 | 1016.0 |
| 20260831034504 | 18 | 333 | 3.2 | 4.8 | 0.00 | 0.00 | 0.00 | 65 | 1015.9 |
| 20260831034004 | 18 | 312 | 3.2 | 4.8 | 0.00 | 0.00 | 0.00 | 65 | 1016.0 |
| 20260831033504 | 18 | 328 | 3.2 | 8.0 | 0.00 | 0.00 | 0.00 | 65 | 1016.0 |
| 20260831033004 | 18 | 336 | 3.2 | 4.8 | 0.00 | 0.00 | 0.00 | 65 | 1016.0 |
| 20260831032504 | 18 | 324 | 3.2 | 4.8 | 0.00 | 0.00 | 0.00 | 64 | 1016.0 |
| 20260831032004 | 18 | 358 | 3.2 | 4.8 | 0.00 | 0.00 | 0.00 | 64 | 1016.0 |
| 20260831031504 | 18 | 324 | 3.2 | 4.8 | 0.00 | 0.00 | 0.00 | 64 | 1016.0 |
| 20260831030504 | 19 | 329 | 4.8 | 12.9 | 0.00 | 0.00 | 0.00 | 63 | 1016.0 |
| 20260831025504 | 19 | 331 | 4.8 | 9.7 | 0.00 | 0.00 | 0.00 | 62 | 1016.1 |
| 20260831025004 | 19 | 344 | 4.8 | 9.7 | 0.00 | 0.00 | 0.00 | 62 | 1016.1 |
| 20260831024504 | 19 | 328 | 6.4 | 12.9 | 0.00 | 0.00 | 0.00 | 62 | 1016.2 |
| 20260831024003 | 20 | 330 | 4.8 | 8.0 | 0.00 | 0.00 | 0.00 | 61 | 1016.1 |
| 20260831023504 | 20 | 333 | 4.8 | 11.3 | 0.00 | 0.00 | 0.00 | 60 | 1016.2 |
| 20260831023004 | 20 | 339 | 4.8 | 11.3 | 0.00 | 0.00 | 0.00 | 60 | 1016.2 |
| 20260831022504 | 20 | 339 | 6.4 | 16.1 | 0.00 | 0.00 | 0.00 | 60 | 1016.2 |
| 20260831022004 | 20 | 339 | 6.4 | 14.5 | 0.00 | 0.00 | 0.00 | 59 | 1016.3 |
| 20260831021504 | 20 | 349 | 9.7 | 19.3 | 0.00 | 0.00 | 0.00 | 58 | 1016.3 |
| 20260831021004 | 20 | 340 | 8.0 | 20.9 | 0.00 | 0.00 | 0.00 | 58 | 1016.3 |
| 20260831020503 | 20 | 336 | 9.7 | 14.5 | 0.00 | 0.00 | 0.00 | 57 | 1016.3 |
| 20260831015503 | 21 | 341 | 9.7 | 14.5 | 0.00 | 0.00 | 0.00 | 56 | 1016.3 |
| 20260831015004 | 21 | 336 | 9.7 | 16.1 | 0.00 | 0.00 | 0.00 | 56 | 1016.3 |
| 20260831014004 | 21 | 334 | 8.0 | 19.3 | 0.00 | 0.00 | 0.00 | 55 | 1016.4 |
| 20260831013504 | 21 | 333 | 9.7 | 20.9 | 0.00 | 0.00 | 0.00 | 55 | 1016.5 |
| 20260831013004 | 21 | 335 | 9.7 | 16.1 | 0.00 | 0.00 | 0.00 | 54 | 1016.4 |
| 20260831012504 | 22 | 347 | 8.0 | 16.1 | 0.00 | 0.00 | 0.00 | 53 | 1016.5 |
| 20260831012004 | 22 | 335 | 9.7 | 19.3 | 0.00 | 0.00 | 0.00 | 53 | 1016.5 |
| 20260831011504 | 22 | 332 | 8.0 | 16.1 | 0.00 | 0.00 | 0.00 | 52 | 1016.5 |
| 20260831011003 | 22 | 329 | 4.8 | 14.5 | 0.00 | 0.00 | 0.00 | 52 | 1016.5 |
| 20260831010005 | 22 | 340 | 9.7 | 19.3 | 0.00 | 0.00 | 0.00 | 52 | 1016.6 |
| 20260831005504 | 22 | 338 | 8.0 | 16.1 | 0.00 | 0.00 | 0.00 | 51 | 1016.7 |
| 20260831005005 | 22 | 340 | 8.0 | 14.5 | 0.00 | 0.00 | 0.00 | 51 | 1016.7 |
| 20260831004505 | 22 | 328 | 4.8 | 12.9 | 0.00 | 0.00 | 0.00 | 51 | 1016.7 |
| 20260831004006 | 22 | 332 | 9.7 | 16.1 | 0.00 | 0.00 | 0.00 | 50 | 1016.7 |
| 20260831003505 | 23 | 344 | 8.0 | 12.9 | 0.00 | 0.00 | 0.00 | 51 | 1016.7 |
| 20260831002505 | 23 | 358 | 8.0 | 12.9 | 0.00 | 0.00 | 0.00 | 50 | 1016.8 |
| 20260831002006 | 23 | 344 | 8.0 | 16.1 | 0.00 | 0.00 | 0.00 | 50 | 1016.8 |
| 20260831001505 | 23 | 350 | 6.4 | 14.5 | 0.00 | 0.00 | 0.00 | 50 | 1016.7 |
| 20260831001005 | 23 | 332 | 4.8 | 19.3 | 0.00 | 0.00 | 0.00 | 50 | 1016.7 |
| 20260831000505 | 23 | 343 | 9.7 | 14.5 | 0.00 | 0.00 | 0.00 | 49 | 1016.7 |
| 20260831000005 | 23 | 329 | 9.7 | 19.3 | 0.00 | 0.00 | 0.00 | 48 | 1016.7 |
| 20260830235505 | 23 | 347 | 4.8 | 9.7 | 0.00 | 0.00 | 0.00 | 48 | 1016.7 |
| 20260830235005 | 23 | 341 | 4.8 | 14.5 | 0.00 | 0.00 | 0.00 | 48 | 1016.8 |
| 20260830234506 | 23 | 325 | 3.2 | 14.5 | 0.00 | 0.00 | 0.00 | 48 | 1016.8 |